地図

経路データ

SID SEASON NUMBER BASIN SUBBASIN NAME ISO_TIME NATURE LAT LON WMO_WIND WMO_PRES WMO_AGENCY TRACK_TYPE DIST2LAND LANDFALL IFLAG USA_AGENCY USA_ATCF_ID USA_LAT USA_LON USA_RECORD USA_STATUS USA_WIND USA_PRES USA_SSHS USA_R34_NE USA_R34_SE USA_R34_SW USA_R34_NW USA_R50_NE USA_R50_SE USA_R50_SW USA_R50_NW USA_R64_NE USA_R64_SE USA_R64_SW USA_R64_NW USA_POCI USA_ROCI USA_RMW USA_EYE TOKYO_LAT TOKYO_LON TOKYO_GRADE TOKYO_WIND TOKYO_PRES TOKYO_R50_DIR TOKYO_R50_LONG TOKYO_R50_SHORT TOKYO_R30_DIR TOKYO_R30_LONG TOKYO_R30_SHORT TOKYO_LAND CMA_LAT CMA_LON CMA_CAT CMA_WIND CMA_PRES HKO_LAT HKO_LON HKO_CAT HKO_WIND HKO_PRES NEWDELHI_LAT NEWDELHI_LON NEWDELHI_GRADE NEWDELHI_WIND NEWDELHI_PRES NEWDELHI_CI NEWDELHI_DP NEWDELHI_POCI REUNION_LAT REUNION_LON REUNION_TYPE REUNION_WIND REUNION_PRES REUNION_TNUM REUNION_CI REUNION_RMW REUNION_R34_NE REUNION_R34_SE REUNION_R34_SW REUNION_R34_NW REUNION_R50_NE REUNION_R50_SE REUNION_R50_SW REUNION_R50_NW REUNION_R64_NE REUNION_R64_SE REUNION_R64_SW REUNION_R64_NW BOM_LAT BOM_LON BOM_TYPE BOM_WIND BOM_PRES BOM_TNUM BOM_CI BOM_RMW BOM_R34_NE BOM_R34_SE BOM_R34_SW BOM_R34_NW BOM_R50_NE BOM_R50_SE BOM_R50_SW BOM_R50_NW BOM_R64_NE BOM_R64_SE BOM_R64_SW BOM_R64_NW BOM_ROCI BOM_POCI BOM_EYE BOM_POS_METHOD BOM_PRES_METHOD NADI_LAT NADI_LON NADI_CAT NADI_WIND NADI_PRES WELLINGTON_LAT WELLINGTON_LON WELLINGTON_WIND WELLINGTON_PRES DS824_LAT DS824_LON DS824_STAGE DS824_WIND DS824_PRES TD9636_LAT TD9636_LON TD9636_STAGE TD9636_WIND TD9636_PRES TD9635_LAT TD9635_LON TD9635_WIND TD9635_PRES TD9635_ROCI NEUMANN_LAT NEUMANN_LON NEUMANN_CLASS NEUMANN_WIND NEUMANN_PRES MLC_LAT MLC_LON MLC_CLASS MLC_WIND MLC_PRES USA_GUST BOM_GUST BOM_GUST_PER REUNION_GUST REUNION_GUST_PER USA_SEAHGT USA_SEARAD_NE USA_SEARAD_SE USA_SEARAD_SW USA_SEARAD_NW STORM_SPEED STORM_DIR
2011239N27301 2011 57 NA NA JOSE 2011-08-26 12:00:00 DS 27.3000 -59.0000 30 1016 hurdat_atl main 1202 1174 O_____________ hurdat_atl AL112011 27.3000 -59.0000 LO 30 1016 -3 11 276
2011239N27301 2011 57 NA NA JOSE 2011-08-26 15:00:00 DS 27.3531 -59.6098 main 1178 1147 P_____________ AL112011 27.3531 -59.6098 LO 30 1015 -3 11 275
2011239N27301 2011 57 NA NA JOSE 2011-08-26 18:00:00 DS 27.4000 -60.2000 30 1014 hurdat_atl main 1147 1123 O_____________ hurdat_atl AL112011 27.4000 -60.2000 LO 30 1014 -3 1017 100 15 10 275
2011239N27301 2011 57 NA NA JOSE 2011-08-26 21:00:00 DS 27.4422 -60.7577 main 1119 1108 P_____________ AL112011 27.4422 -60.7577 LO 30 1013 -3 1017 100 15 10 276
2011239N27301 2011 57 NA NA JOSE 2011-08-27 00:00:00 DS 27.5000 -61.3000 30 1013 hurdat_atl main 1108 1096 O_____________ hurdat_atl AL112011 27.5000 -61.3000 LO 30 1013 -3 1017 100 15 10 279
2011239N27301 2011 57 NA NA JOSE 2011-08-27 03:00:00 DS 27.5924 -61.8575 main 1095 1088 P_____________ AL112011 27.5924 -61.8575 LO 30 1012 -3 1016 100 15 10 282
2011239N27301 2011 57 NA NA JOSE 2011-08-27 06:00:00 TS 27.7000 -62.4000 30 1011 hurdat_atl main 1089 1080 O_____________ hurdat_atl AL112011 27.7000 -62.4000 TD 30 1011 -1 1015 100 15 10 282
2011239N27301 2011 57 NA NA JOSE 2011-08-27 09:00:00 TS 27.7848 -62.9153 main 1086 1078 P_____________ AL112011 27.7848 -62.9153 TD 32 1009 -1 1015 100 15 9 283
2011239N27301 2011 57 NA NA JOSE 2011-08-27 12:00:00 TS 27.9000 -63.4000 35 1008 hurdat_atl main 1085 1081 O_____________ hurdat_atl AL112011 27.9000 -63.4000 TS 35 1008 0 15 15 1015 100 15 9 288
2011239N27301 2011 57 NA NA JOSE 2011-08-27 15:00:00 TS 28.0550 -63.8802 main 1097 1094 P_____________ AL112011 28.0550 -63.8802 TS 35 1008 0 20 15 1014 100 15 9 297
2011239N27301 2011 57 NA NA JOSE 2011-08-27 18:00:00 TS 28.3000 -64.3000 35 1008 hurdat_atl main 1114 1114 O_____________ hurdat_atl AL112011 28.3000 -64.3000 TS 35 1008 0 25 25 15 1014 100 15 9 314
2011239N27301 2011 57 NA NA JOSE 2011-08-27 21:00:00 TS 28.6773 -64.6226 main 1153 1149 P_____________ AL112011 28.6773 -64.6226 TS 35 1008 0 30 30 1013 95 15 10 327
2011239N27301 2011 57 NA NA JOSE 2011-08-28 00:00:00 TS 29.1000 -64.9000 35 1008 hurdat_atl main 1180 1180 O_____________ hurdat_atl AL112011 29.1000 -64.9000 TS 35 1008 0 35 35 1012 90 15 9 325
2011239N27301 2011 57 NA NA JOSE 2011-08-28 03:00:00 TS 29.4276 -65.2301 main 1197 1146 P_____________ AL112011 29.4276 -65.2301 TS 37 1007 0 40 40 1012 95 15 9 323
2011239N27301 2011 57 NA NA JOSE 2011-08-28 06:00:00 TS 29.8000 -65.5000 40 1007 hurdat_atl main 1146 1105 O_____________ hurdat_atl AL112011 29.8000 -65.5000 TS 40 1007 0 45 45 1012 100 15 45 9 338
2011239N27301 2011 57 NA NA JOSE 2011-08-28 09:00:00 TS 30.2899 -65.6378 main 1105 1059 P_____________ AL112011 30.2899 -65.6378 TS 40 1006 0 45 45 1012 95 15 11 351
2011239N27301 2011 57 NA NA JOSE 2011-08-28 12:00:00 TS 30.9000 -65.7000 40 1006 hurdat_atl main 1059 1009 O_____________ hurdat_atl AL112011 30.9000 -65.7000 TS 40 1006 0 45 45 1012 90 15 45 13 355
2011239N27301 2011 57 NA NA JOSE 2011-08-28 15:00:00 TS 31.5975 -65.7796 main 1009 967 P_____________ AL112011 31.5975 -65.7796 TS 40 1006 0 45 45 1012 90 15 15 357
2011239N27301 2011 57 NA NA JOSE 2011-08-28 18:00:00 TS 32.4000 -65.8000 40 1006 hurdat_atl main 967 932 O_____________ hurdat_atl AL112011 32.4000 -65.8000 TS 40 1006 0 45 45 1012 90 15 50 17 1
2011239N27301 2011 57 NA NA JOSE 2011-08-28 21:00:00 TS 33.2625 -65.7446 main 937 916 P_____________ AL112011 33.2625 -65.7446 TS 40 1006 0 45 45 1012 90 20 18 5
2011239N27301 2011 57 NA NA JOSE 2011-08-29 00:00:00 DS 34.2000 -65.6000 40 1007 hurdat_atl main 916 832 O_____________ hurdat_atl AL112011 34.2000 -65.6000 LO 40 1007 -3 45 45 1012 90 25 50 19 8
2011239N27301 2011 57 NA NA JOSE 2011-08-29 03:00:00 DS 35.1770 -65.4303 main 826 752 P_____________ AL112011 35.1770 -65.4303 LO 37 1008 -3 40 40 1012 90 22 20 12
2011239N27301 2011 57 NA NA JOSE 2011-08-29 06:00:00 DS 36.2000 -65.1000 35 1009 hurdat_atl main 743 681 O_____________ hurdat_atl AL112011 36.2000 -65.1000 LO 35 1009 -3 35 35 1012 90 20 45 12 40 40 22 19
2011239N27301 2011 57 NA NA JOSE 2011-08-29 09:00:00 DS 37.2463 -64.5280 main 687 601 P_____________ AL112011 37.2463 -64.5280 LO 32 1010 -3 1012 82 22 23 26
2011239N27301 2011 57 NA NA JOSE 2011-08-29 12:00:00 DS 38.3000 -63.8000 30 1012 hurdat_atl main 592 O_____________ hurdat_atl AL112011 38.3000 -63.8000 LO 30 1012 -3 1013 75 25 35 24 28

IBTrACS Databaseについて

本データベースは、米国NOAAが公開する1842年以降の世界の熱帯低気圧のベストトラックデータアーカイブInternational Best Track Archive for Climate Stewardship (IBTrACS)を、ウェブで閲覧しやすい形式に変換したものです。

最終更新日:2021-11-26